createdAt,value
2023-01-02T00:01:30.834Z,101028.38
2023-01-02T00:03:59.410Z,101020.23
2023-01-02T00:06:27.530Z,101021.27
2023-01-02T00:08:55.935Z,101021.15
2023-01-02T00:11:23.968Z,101021.64
2023-01-02T00:13:54.281Z,101015.45
2023-01-02T00:16:22.119Z,101011.57
2023-01-02T00:18:51.673Z,101010.61
2023-01-02T00:21:19.822Z,101007.57
2023-01-02T00:23:48.762Z,101008.03
2023-01-02T00:26:17.630Z,101011.23
2023-01-02T00:28:45.690Z,101014.83
2023-01-02T00:31:14.260Z,101009.13
2023-01-02T00:33:44.827Z,101004.09
2023-01-02T00:36:13.152Z,101005.71
2023-01-02T00:38:41.397Z,101007.00
2023-01-02T00:41:09.368Z,101011.88
2023-01-02T00:43:37.638Z,101015.88
2023-01-02T00:46:11.450Z,101018.74
2023-01-02T00:48:41.056Z,101019.55
2023-01-02T00:51:09.002Z,101024.76
2023-01-02T00:53:38.712Z,101018.34
2023-01-02T00:56:10.757Z,101028.60
2023-01-02T00:58:38.751Z,101026.36
2023-01-02T01:01:08.190Z,101023.47
2023-01-02T01:03:37.171Z,101028.52
2023-01-02T01:06:14.002Z,101034.39
2023-01-02T01:08:43.427Z,101035.54
2023-01-02T01:11:16.340Z,101033.56
2023-01-02T01:13:44.500Z,101031.63
2023-01-02T01:16:14.627Z,101030.66
2023-01-02T01:18:45.646Z,101023.98
2023-01-02T01:21:18.684Z,101023.34
2023-01-02T01:23:51.123Z,101021.88
2023-01-02T01:26:20.304Z,101015.83
2023-01-02T01:28:52.695Z,101016.32
2023-01-02T01:31:21.666Z,101016.46
2023-01-02T01:33:51.117Z,101013.54
2023-01-02T01:36:20.501Z,101010.45
2023-01-02T01:38:54.657Z,101003.02
2023-01-02T01:41:25.192Z,100992.83
2023-01-02T01:43:55.506Z,100992.65
2023-01-02T01:46:29.562Z,100993.52
2023-01-02T01:49:00.501Z,100987.20
2023-01-02T01:51:29.422Z,100984.14
2023-01-02T01:54:01.311Z,100982.50
2023-01-02T01:56:29.333Z,100982.14
2023-01-02T01:58:57.356Z,100972.55
2023-01-02T02:01:25.323Z,100961.23
2023-01-02T02:03:54.131Z,100963.07
2023-01-02T02:06:22.007Z,100957.55
2023-01-02T02:08:52.659Z,100957.66
2023-01-02T02:11:20.669Z,100960.79
2023-01-02T02:13:53.904Z,100961.83
2023-01-02T02:16:27.931Z,100960.40
2023-01-02T02:19:07.230Z,100958.86
2023-01-02T02:21:50.487Z,100956.15
2023-01-02T02:24:32.684Z,100954.27
2023-01-02T02:27:07.518Z,100954.83
2023-01-02T02:29:51.494Z,100955.77
2023-01-02T02:32:26.408Z,100953.71
2023-01-02T02:34:59.518Z,100954.21
2023-01-02T02:37:32.000Z,100953.81
2023-01-02T02:40:03.032Z,100951.95
2023-01-02T02:42:36.301Z,100951.34
2023-01-02T02:45:11.660Z,100953.41
2023-01-02T02:47:43.415Z,100960.17
2023-01-02T02:50:14.520Z,100969.77
2023-01-02T02:52:47.319Z,100971.25
2023-01-02T02:55:18.563Z,100970.89
2023-01-02T02:57:50.479Z,100971.54
2023-01-02T03:00:19.861Z,100976.20
2023-01-02T03:02:47.996Z,100978.42
2023-01-02T03:05:22.985Z,100981.90
2023-01-02T03:07:54.046Z,100982.17
2023-01-02T03:10:27.605Z,100977.39
2023-01-02T03:13:04.545Z,100973.70
2023-01-02T03:15:37.838Z,100972.91
2023-01-02T03:18:10.580Z,100972.41
2023-01-02T03:20:42.103Z,100977.71
2023-01-02T03:23:14.170Z,100974.27
2023-01-02T03:25:43.835Z,100977.27
2023-01-02T03:28:17.669Z,100980.30
2023-01-02T03:30:48.000Z,100984.02
2023-01-02T03:33:18.246Z,100980.27
2023-01-02T03:35:49.044Z,100976.60
2023-01-02T03:38:22.260Z,100971.75
2023-01-02T03:40:52.938Z,100964.89
2023-01-02T03:43:23.289Z,100961.61
2023-01-02T03:45:56.858Z,100962.34
2023-01-02T03:48:29.214Z,100962.97
2023-01-02T03:50:59.755Z,100967.67
2023-01-02T03:53:28.957Z,100976.92
2023-01-02T03:56:07.556Z,100979.98
2023-01-02T03:58:39.420Z,100982.33
2023-01-02T04:01:11.862Z,100980.25
2023-01-02T04:03:42.510Z,100973.95
2023-01-02T04:06:12.462Z,100973.10
2023-01-02T04:08:44.809Z,100974.33
2023-01-02T04:11:22.651Z,100975.57
2023-01-02T04:13:56.316Z,100970.41
2023-01-02T04:16:27.486Z,100975.76
2023-01-02T04:18:58.858Z,100975.78
2023-01-02T04:21:30.285Z,100980.30
2023-01-02T04:24:00.213Z,100979.38
2023-01-02T04:26:31.749Z,100981.14
2023-01-02T04:29:00.339Z,100986.45
2023-01-02T04:31:32.513Z,100992.95
2023-01-02T04:34:01.993Z,100995.36
2023-01-02T04:36:30.089Z,100997.39
2023-01-02T04:38:58.236Z,100998.04
2023-01-02T04:41:26.807Z,101001.29
2023-01-02T04:43:55.101Z,101002.85
2023-01-02T04:46:39.556Z,100998.50
2023-01-02T04:49:09.039Z,100995.23
2023-01-02T04:51:36.973Z,100994.02
2023-01-02T04:54:05.174Z,100986.84
2023-01-02T04:56:33.350Z,100976.30
2023-01-02T04:59:01.590Z,100969.29
2023-01-02T05:01:30.597Z,100960.29
2023-01-02T05:03:58.938Z,100946.30
2023-01-02T05:06:27.171Z,100945.71
2023-01-02T05:08:55.492Z,100944.64
2023-01-02T05:11:23.404Z,100949.36
2023-01-02T05:13:56.103Z,100943.30
2023-01-02T05:16:27.512Z,100941.23
2023-01-02T05:18:58.353Z,100934.42
2023-01-02T05:21:45.123Z,100926.53
2023-01-02T05:24:20.777Z,100923.26
2023-01-02T05:26:50.990Z,100918.42
2023-01-02T05:29:20.795Z,100918.30
2023-01-02T05:31:53.082Z,100911.41
2023-01-02T05:34:21.589Z,100905.34
2023-01-02T05:36:50.037Z,100902.72
2023-01-02T05:39:19.643Z,100896.65
2023-01-02T05:41:50.352Z,100894.52
2023-01-02T05:44:19.073Z,100897.70
2023-01-02T05:46:47.426Z,100907.52
2023-01-02T05:49:16.555Z,100907.06
2023-01-02T05:51:44.635Z,100899.41
2023-01-02T05:54:12.549Z,100895.44
2023-01-02T05:56:40.441Z,100894.52
2023-01-02T05:59:08.600Z,100894.23
2023-01-02T06:01:37.096Z,100894.71
2023-01-02T06:04:05.460Z,100895.05
2023-01-02T06:06:34.469Z,100891.55
2023-01-02T06:09:03.749Z,100890.48
2023-01-02T06:11:32.667Z,100890.37
2023-01-02T06:14:04.289Z,100887.29
2023-01-02T06:16:32.528Z,100882.83
2023-01-02T06:19:09.997Z,100882.32
2023-01-02T06:21:40.497Z,100885.14
2023-01-02T06:24:08.663Z,100887.98
2023-01-02T06:26:36.737Z,100892.63
2023-01-02T06:29:05.046Z,100895.66
2023-01-02T06:31:33.401Z,100895.79
2023-01-02T06:34:02.628Z,100896.45
2023-01-02T06:36:31.320Z,100890.23
2023-01-02T06:38:59.604Z,100883.92
2023-01-02T06:41:27.996Z,100879.83
2023-01-02T06:43:55.763Z,100870.77
2023-01-02T06:46:25.343Z,100870.89
2023-01-02T06:48:53.890Z,100884.21
2023-01-02T06:51:22.476Z,100890.15
2023-01-02T06:53:50.526Z,100885.36
2023-01-02T06:56:19.658Z,100886.33
2023-01-02T06:58:49.808Z,100892.27
2023-01-02T07:01:20.704Z,100894.40
2023-01-02T07:03:49.035Z,100892.83
2023-01-02T07:06:18.906Z,100888.32
2023-01-02T07:08:50.470Z,100882.34
2023-01-02T07:11:19.687Z,100878.69
2023-01-02T07:13:51.960Z,100873.15
2023-01-02T07:16:20.489Z,100864.55
2023-01-02T07:18:51.133Z,100862.39
2023-01-02T07:21:19.440Z,100862.95
2023-01-02T07:23:48.083Z,100858.66
2023-01-02T07:26:17.804Z,100863.16
2023-01-02T07:28:45.880Z,100872.23
2023-01-02T07:31:14.390Z,100870.23
2023-01-02T07:33:43.252Z,100863.95
2023-01-02T07:36:12.284Z,100855.21
2023-01-02T07:38:40.216Z,100847.50
2023-01-02T07:41:13.619Z,100847.43
2023-01-02T07:43:41.598Z,100844.65
2023-01-02T07:46:09.845Z,100840.48
2023-01-02T07:48:37.641Z,100834.16
2023-01-02T07:51:06.639Z,100831.52
2023-01-02T07:53:35.025Z,100823.08
2023-01-02T07:56:03.543Z,100822.36
2023-01-02T07:58:31.520Z,100825.70
2023-01-02T08:01:05.212Z,100828.89
2023-01-02T08:03:33.550Z,100837.17
2023-01-02T08:06:05.042Z,100842.83
2023-01-02T08:08:32.824Z,100847.15
2023-01-02T08:11:03.826Z,100845.45
2023-01-02T08:13:31.581Z,100847.80
2023-01-02T08:16:02.706Z,100842.27
2023-01-02T08:18:30.326Z,100837.06
2023-01-02T08:20:58.348Z,100835.39
2023-01-02T08:23:26.119Z,100841.48
2023-01-02T08:25:57.686Z,100840.45
2023-01-02T08:28:25.594Z,100841.46
2023-01-02T08:30:53.567Z,100840.58
2023-01-02T08:33:22.074Z,100847.36
2023-01-02T08:35:50.177Z,100843.64
2023-01-02T08:38:18.094Z,100843.58
2023-01-02T08:40:45.830Z,100843.67
2023-01-02T08:43:14.554Z,100845.51
2023-01-02T08:45:44.262Z,100841.63
2023-01-02T08:48:20.536Z,100841.34
2023-01-02T08:50:49.531Z,100838.98
2023-01-02T08:53:18.676Z,100833.83
2023-01-02T08:55:46.422Z,100827.91
2023-01-02T08:58:14.325Z,100821.71
2023-01-02T09:00:42.160Z,100820.24
2023-01-02T09:03:09.959Z,100818.27
2023-01-02T09:05:38.002Z,100816.71
2023-01-02T09:08:05.869Z,100818.79
2023-01-02T09:10:33.610Z,100822.17
2023-01-02T09:13:01.595Z,100819.93
2023-01-02T09:15:31.186Z,100819.88
2023-01-02T09:17:59.272Z,100821.05
2023-01-02T09:20:26.973Z,100822.64
2023-01-02T09:22:54.793Z,100821.79
2023-01-02T09:25:24.598Z,100826.91
2023-01-02T09:27:52.563Z,100824.20
2023-01-02T09:30:20.584Z,100823.77
2023-01-02T09:32:50.246Z,100815.86
2023-01-02T09:35:18.075Z,100808.52
2023-01-02T09:37:45.804Z,100807.48
2023-01-02T09:40:14.392Z,100806.95
2023-01-02T09:42:44.091Z,100810.46
2023-01-02T09:45:12.853Z,100806.75
2023-01-02T09:47:41.474Z,100805.10
2023-01-02T09:50:13.397Z,100802.71
2023-01-02T09:52:42.342Z,100804.59
2023-01-02T09:55:16.881Z,100799.92
2023-01-02T09:57:48.987Z,100797.38
2023-01-02T10:00:19.251Z,100791.64
2023-01-02T10:02:51.437Z,100782.90
2023-01-02T10:05:26.646Z,100773.56
2023-01-02T10:07:58.102Z,100770.65
2023-01-02T10:10:27.620Z,100769.81
2023-01-02T10:13:00.868Z,100767.39
2023-01-02T10:15:30.479Z,100758.46
2023-01-02T10:18:00.015Z,100758.71
2023-01-02T10:20:29.840Z,100755.73
2023-01-02T10:23:00.938Z,100756.20
2023-01-02T10:25:31.108Z,100753.52
2023-01-02T10:28:01.275Z,100756.26
2023-01-02T10:30:32.625Z,100753.20
2023-01-02T10:33:02.901Z,100756.98
2023-01-02T10:35:34.429Z,100748.27
2023-01-02T10:38:02.762Z,100740.15
2023-01-02T10:40:31.653Z,100739.90
2023-01-02T10:43:00.377Z,100738.23
2023-01-02T10:45:28.243Z,100734.64
2023-01-02T10:47:56.035Z,100733.90
2023-01-02T10:50:27.889Z,100734.64
2023-01-02T10:53:05.675Z,100730.66
2023-01-02T10:55:37.119Z,100742.23
2023-01-02T10:58:05.893Z,100746.56
2023-01-02T11:00:36.263Z,100748.27
2023-01-02T11:03:14.031Z,100740.88
2023-01-02T11:05:45.246Z,100730.19
2023-01-02T11:08:13.916Z,100724.77
2023-01-02T11:10:41.836Z,100729.20
2023-01-02T11:13:10.469Z,100731.63
2023-01-02T11:15:47.151Z,100731.95
2023-01-02T11:18:19.906Z,100731.70
2023-01-02T11:20:49.568Z,100731.25
2023-01-02T11:23:21.118Z,100730.22
2023-01-02T11:25:50.830Z,100724.46
2023-01-02T11:28:20.676Z,100711.98
2023-01-02T11:30:50.565Z,100710.16
2023-01-02T11:33:20.018Z,100709.06
2023-01-02T11:35:48.684Z,100705.86
2023-01-02T11:38:29.588Z,100704.21
2023-01-02T11:40:59.966Z,100699.38
2023-01-02T11:43:50.556Z,100701.83
2023-01-02T11:46:23.075Z,100705.04
2023-01-02T11:48:55.809Z,100693.81
2023-01-02T11:51:26.844Z,100692.95
2023-01-02T11:53:55.949Z,100690.52
2023-01-02T11:56:30.346Z,100690.36
2023-01-02T11:59:01.055Z,100690.98
2023-01-02T12:01:35.651Z,100696.11
2023-01-02T12:04:04.407Z,100695.94
2023-01-02T12:06:38.636Z,100703.56
2023-01-02T12:09:10.672Z,100701.33
2023-01-02T12:11:44.009Z,100696.23
2023-01-02T12:14:16.724Z,100693.46
2023-01-02T12:16:50.718Z,100693.98
2023-01-02T12:19:51.310Z,100685.06
2023-01-02T12:22:29.883Z,100675.23
2023-01-02T12:25:07.100Z,100669.48
2023-01-02T12:27:38.328Z,100667.74
2023-01-02T12:30:12.179Z,100674.04
2023-01-02T12:32:56.798Z,100667.42
2023-01-02T12:35:36.628Z,100659.02
2023-01-02T12:38:07.319Z,100653.13
2023-01-02T12:40:43.794Z,100650.15
2023-01-02T12:43:31.175Z,100646.28
2023-01-02T12:46:08.173Z,100642.55
2023-01-02T12:48:45.477Z,100643.58
2023-01-02T12:51:17.477Z,100648.48
2023-01-02T12:54:19.979Z,100645.34
2023-01-02T12:56:42.967Z,100635.58
2023-01-02T12:59:20.589Z,100637.80
2023-01-02T13:01:51.587Z,100633.02
2023-01-02T13:04:22.098Z,100631.88
2023-01-02T13:06:55.941Z,100635.27
2023-01-02T13:09:28.348Z,100629.73
2023-01-02T13:11:59.692Z,100629.55
2023-01-02T13:14:31.344Z,100626.67
2023-01-02T13:17:05.354Z,100629.04
2023-01-02T13:19:37.130Z,100632.12
2023-01-02T13:22:11.613Z,100631.56
2023-01-02T13:24:41.022Z,100629.86
2023-01-02T13:27:10.339Z,100627.09
2023-01-02T13:29:42.095Z,100627.52
2023-01-02T13:32:11.154Z,100626.04
2023-01-02T13:34:47.047Z,100630.30
2023-01-02T13:37:23.367Z,100628.23
2023-01-02T13:39:52.736Z,100627.84
2023-01-02T13:42:41.279Z,100624.48
2023-01-02T13:45:12.316Z,100612.64
2023-01-02T13:47:46.144Z,100609.70
2023-01-02T13:50:18.262Z,100612.02
2023-01-02T13:52:58.489Z,100613.22
2023-01-02T13:55:32.024Z,100621.64
2023-01-02T13:58:19.964Z,100625.23
2023-01-02T14:00:54.408Z,100624.27
2023-01-02T14:03:35.388Z,100626.73
2023-01-02T14:06:04.155Z,100626.64
2023-01-02T14:08:32.735Z,100626.77
2023-01-02T14:11:01.974Z,100620.36
2023-01-02T14:13:37.832Z,100624.28
2023-01-02T14:16:19.832Z,100626.23
2023-01-02T14:19:01.800Z,100626.41
2023-01-02T14:21:33.557Z,100621.47
2023-01-02T14:24:17.176Z,100612.84
2023-01-02T14:26:51.859Z,100608.77
2023-01-02T14:29:20.594Z,100607.40
2023-01-02T14:31:55.075Z,100607.73
2023-01-02T14:34:25.290Z,100604.85
2023-01-02T14:36:56.759Z,100599.95
2023-01-02T14:39:26.995Z,100603.73
2023-01-02T14:42:31.271Z,100604.95
2023-01-02T14:45:03.730Z,100604.75
2023-01-02T14:47:36.289Z,100605.16
2023-01-02T14:50:06.546Z,100601.11
2023-01-02T14:52:39.953Z,100599.36
2023-01-02T14:55:13.006Z,100595.80
2023-01-02T14:57:44.379Z,100597.42
2023-01-02T15:00:18.846Z,100593.44
2023-01-02T15:02:50.715Z,100589.63
2023-01-02T15:05:26.894Z,100586.91
2023-01-02T15:07:56.603Z,100591.65
2023-01-02T15:10:25.205Z,100608.98
2023-01-02T15:13:06.996Z,100607.60
2023-01-02T15:15:36.860Z,100602.27
2023-01-02T15:18:07.752Z,100600.02
2023-01-02T15:20:35.764Z,100598.58
2023-01-02T15:23:04.391Z,100602.59
2023-01-02T15:25:36.144Z,100608.86
2023-01-02T15:28:04.263Z,100607.94
2023-01-02T15:30:37.944Z,100618.86
2023-01-02T15:33:06.729Z,100618.27
2023-01-02T15:35:37.697Z,100617.23
2023-01-02T15:38:18.698Z,100619.33
2023-01-02T15:40:46.920Z,100627.66
2023-01-02T15:43:35.676Z,100627.48
2023-01-02T15:46:05.066Z,100628.38
2023-01-02T15:48:33.953Z,100630.71
2023-01-02T15:51:03.167Z,100637.65
2023-01-02T15:53:32.571Z,100640.48
2023-01-02T15:56:00.571Z,100641.54
2023-01-02T15:58:30.067Z,100638.43
2023-01-02T16:01:15.043Z,100638.44
2023-01-02T16:04:01.398Z,100633.20
2023-01-02T16:06:33.513Z,100625.06
2023-01-02T16:09:03.275Z,100624.05
2023-01-02T16:11:33.275Z,100624.29
2023-01-02T16:14:19.302Z,100628.92
2023-01-02T16:16:49.072Z,100619.83
2023-01-02T16:19:22.592Z,100615.39
2023-01-02T16:22:01.527Z,100610.19
2023-01-02T16:24:34.738Z,100607.48
2023-01-02T16:27:04.266Z,100610.38
2023-01-02T16:29:34.210Z,100612.20
2023-01-02T16:32:03.044Z,100618.25
2023-01-02T16:34:32.989Z,100623.45
2023-01-02T16:37:22.514Z,100618.92
2023-01-02T16:39:50.463Z,100604.78
2023-01-02T16:42:36.999Z,100593.79
2023-01-02T16:45:06.508Z,100604.90
2023-01-02T16:47:39.289Z,100605.85
2023-01-02T16:50:14.584Z,100603.27
2023-01-02T16:52:43.981Z,100593.67
2023-01-02T16:55:18.657Z,100586.02
2023-01-02T16:57:46.950Z,100574.52
2023-01-02T17:00:16.409Z,100575.81
2023-01-02T17:02:47.843Z,100582.86
2023-01-02T17:05:17.921Z,100589.14
2023-01-02T17:07:46.385Z,100599.86
2023-01-02T17:10:14.648Z,100605.67
2023-01-02T17:12:47.090Z,100602.53
2023-01-02T17:15:18.539Z,100599.84
2023-01-02T17:17:46.561Z,100604.08
2023-01-02T17:20:15.970Z,100607.09
2023-01-02T17:22:44.393Z,100595.35
2023-01-02T17:25:13.551Z,100592.33
2023-01-02T17:27:44.568Z,100587.72
2023-01-02T17:30:13.907Z,100587.10
2023-01-02T17:32:43.128Z,100587.66
2023-01-02T17:35:11.169Z,100591.50
2023-01-02T17:37:39.200Z,100589.41
2023-01-02T17:40:12.430Z,100593.70
2023-01-02T17:42:41.284Z,100587.61
2023-01-02T17:45:10.480Z,100588.85
2023-01-02T17:48:00.756Z,100594.97
2023-01-02T17:50:28.544Z,100587.96
2023-01-02T17:52:56.908Z,100590.08
2023-01-02T17:55:25.575Z,100601.55
2023-01-02T17:57:54.507Z,100605.09
2023-01-02T18:00:23.851Z,100601.49
2023-01-02T18:02:52.379Z,100598.46
2023-01-02T18:05:21.848Z,100602.52
2023-01-02T18:07:49.694Z,100605.48
2023-01-02T18:10:20.846Z,100605.39
2023-01-02T18:12:49.968Z,100598.89
2023-01-02T18:15:19.670Z,100603.14
2023-01-02T18:17:47.790Z,100599.37
2023-01-02T18:20:20.317Z,100599.71
2023-01-02T18:22:50.506Z,100594.45
2023-01-02T18:25:20.046Z,100594.16
2023-01-02T18:27:48.747Z,100598.60
2023-01-02T18:30:18.970Z,100602.84
2023-01-02T18:32:47.483Z,100599.56
2023-01-02T18:35:54.734Z,100598.48
2023-01-02T18:38:13.795Z,100596.17
2023-01-02T18:40:42.031Z,100592.02
2023-01-02T18:43:17.479Z,100595.80
2023-01-02T18:45:46.862Z,100590.67
2023-01-02T18:48:17.440Z,100585.52
2023-01-02T18:50:49.458Z,100584.02
2023-01-02T18:53:21.827Z,100576.12
2023-01-02T18:55:51.401Z,100571.71
2023-01-02T18:58:33.305Z,100572.39
2023-01-02T19:01:06.897Z,100574.64
2023-01-02T19:03:35.655Z,100578.27
2023-01-02T19:06:05.776Z,100575.09
2023-01-02T19:08:36.341Z,100572.39
2023-01-02T19:11:32.100Z,100561.14
2023-01-02T19:14:10.427Z,100556.63
2023-01-02T19:16:41.548Z,100569.06
2023-01-02T19:19:12.524Z,100574.19
2023-01-02T19:21:40.698Z,100570.95
2023-01-02T19:24:14.101Z,100569.73
2023-01-02T19:26:43.364Z,100573.67
2023-01-02T19:29:19.545Z,100579.09
2023-01-02T19:31:50.392Z,100581.95
2023-01-02T19:34:26.052Z,100580.26
2023-01-02T19:36:56.927Z,100581.23
2023-01-02T19:39:26.384Z,100585.67
2023-01-02T19:42:12.623Z,100587.46
2023-01-02T19:44:41.498Z,100580.58
2023-01-02T19:47:11.076Z,100582.81
2023-01-02T19:49:38.873Z,100585.59
2023-01-02T19:52:10.652Z,100580.58
2023-01-02T19:54:39.554Z,100585.38
2023-01-02T19:57:08.180Z,100583.58
2023-01-02T19:59:43.311Z,100579.30
2023-01-02T20:02:12.758Z,100585.18
2023-01-02T20:04:41.404Z,100586.64
2023-01-02T20:07:09.739Z,100583.93
2023-01-02T20:09:37.918Z,100589.47
2023-01-02T20:12:24.161Z,100593.74
2023-01-02T20:14:52.195Z,100590.36
2023-01-02T20:17:23.746Z,100589.90
2023-01-02T20:19:51.559Z,100600.58
2023-01-02T20:22:22.833Z,100603.80
2023-01-02T20:24:50.553Z,100606.08
2023-01-02T20:27:24.565Z,100608.27
2023-01-02T20:29:54.545Z,100605.15
2023-01-02T20:32:24.812Z,100604.88
2023-01-02T20:34:54.724Z,100606.10
2023-01-02T20:37:26.056Z,100604.92
2023-01-02T20:39:54.136Z,100608.80
2023-01-02T20:42:23.093Z,100604.27
2023-01-02T20:44:50.901Z,100607.13
2023-01-02T20:47:24.379Z,100607.50
2023-01-02T20:49:52.440Z,100610.76
2023-01-02T20:52:26.451Z,100610.89
2023-01-02T20:54:57.800Z,100603.63
2023-01-02T20:57:25.598Z,100605.20
2023-01-02T20:59:53.874Z,100603.19
2023-01-02T21:02:23.332Z,100603.45
2023-01-02T21:04:51.981Z,100608.13
2023-01-02T21:07:19.862Z,100617.38
2023-01-02T21:09:47.592Z,100626.48
2023-01-02T21:12:38.298Z,100627.16
2023-01-02T21:15:29.208Z,100631.83
2023-01-02T21:18:00.103Z,100630.73
2023-01-02T21:20:33.339Z,100636.73
2023-01-02T21:23:01.735Z,100627.75
2023-01-02T21:25:29.601Z,100627.05
2023-01-02T21:28:01.145Z,100621.63
2023-01-02T21:30:29.364Z,100622.84
2023-01-02T21:32:57.348Z,100621.05
2023-01-02T21:35:25.357Z,100623.46
2023-01-02T21:37:53.233Z,100619.89
2023-01-02T21:40:21.228Z,100613.88
2023-01-02T21:42:49.122Z,100616.92
2023-01-02T21:45:18.402Z,100621.03
2023-01-02T21:47:46.623Z,100622.38
2023-01-02T21:50:14.653Z,100623.63
2023-01-02T21:52:42.532Z,100616.89
2023-01-02T21:55:10.959Z,100621.15
2023-01-02T21:58:11.634Z,100626.65
2023-01-02T22:00:28.237Z,100629.95
2023-01-02T22:02:56.077Z,100625.42
2023-01-02T22:05:24.691Z,100618.73
2023-01-02T22:07:52.754Z,100618.13
2023-01-02T22:10:20.554Z,100613.36
2023-01-02T22:12:48.392Z,100621.83
2023-01-02T22:15:16.427Z,100622.10
2023-01-02T22:17:46.775Z,100622.05
2023-01-02T22:20:14.575Z,100622.58
2023-01-02T22:22:42.675Z,100624.64
2023-01-02T22:25:11.242Z,100628.14
2023-01-02T22:27:42.248Z,100636.80
2023-01-02T22:30:22.990Z,100636.75
2023-01-02T22:32:53.811Z,100631.19
2023-01-02T22:35:21.707Z,100635.91
2023-01-02T22:37:49.389Z,100641.09
2023-01-02T22:40:19.003Z,100643.42
2023-01-02T22:43:05.398Z,100643.93
2023-01-02T22:45:41.498Z,100643.19
2023-01-02T22:48:14.974Z,100642.13
2023-01-02T22:50:43.930Z,100650.70
2023-01-02T22:53:18.010Z,100653.14
2023-01-02T22:55:46.026Z,100645.33
2023-01-02T22:58:14.581Z,100648.89
2023-01-02T23:00:42.515Z,100649.11
2023-01-02T23:03:14.268Z,100656.25
2023-01-02T23:05:46.270Z,100661.39
2023-01-02T23:08:14.294Z,100653.42
2023-01-02T23:10:42.187Z,100659.60
2023-01-02T23:13:12.541Z,100664.95
2023-01-02T23:15:57.472Z,100667.54
2023-01-02T23:18:43.537Z,100668.73
2023-01-02T23:21:11.781Z,100670.89
2023-01-02T23:23:40.906Z,100673.63
2023-01-02T23:26:08.837Z,100674.79
2023-01-02T23:29:05.999Z,100674.16
2023-01-02T23:31:29.083Z,100672.52
2023-01-02T23:33:56.851Z,100674.83
2023-01-02T23:36:24.808Z,100677.61
2023-01-02T23:38:53.012Z,100677.34
2023-01-02T23:41:20.825Z,100678.10
2023-01-02T23:43:54.952Z,100680.60
2023-01-02T23:46:23.111Z,100683.69
2023-01-02T23:48:50.921Z,100683.88
2023-01-02T23:51:21.319Z,100684.52
2023-01-02T23:53:49.679Z,100682.56
2023-01-02T23:56:18.888Z,100677.81
2023-01-02T23:58:53.252Z,100676.20
